createdAt,value
2023-03-31T00:01:24.382Z,98508.75
2023-03-31T00:06:27.872Z,98507.72
2023-03-31T00:11:31.532Z,98505.03
2023-03-31T00:16:36.450Z,98502.56
2023-03-31T00:21:42.880Z,98494.69
2023-03-31T00:26:46.645Z,98490.38
2023-03-31T00:31:51.565Z,98479.22
2023-03-31T00:36:56.831Z,98478.88
2023-03-31T00:42:00.980Z,98479.53
2023-03-31T00:47:11.826Z,98488.94
2023-03-31T00:52:19.095Z,98493.97
2023-03-31T00:57:24.961Z,98497.75
2023-03-31T01:02:30.324Z,98492.75
2023-03-31T01:07:41.674Z,98487.53
2023-03-31T01:12:48.752Z,98462.84
2023-03-31T01:17:56.081Z,98468.78
2023-03-31T01:23:27.163Z,98468.78
2023-03-31T01:28:39.064Z,98455.03
2023-03-31T01:34:15.984Z,98456.38
2023-03-31T01:40:02.920Z,98452.16
2023-03-31T01:45:20.612Z,98438.06
2023-03-31T01:50:29.587Z,98462.13
2023-03-31T01:55:38.520Z,98437.50
2023-03-31T02:00:46.906Z,98427.16
2023-03-31T02:05:56.598Z,98426.09
2023-03-31T02:11:02.141Z,98432.63
2023-03-31T02:16:13.035Z,98435.06
2023-03-31T02:21:17.691Z,98428.97
2023-03-31T02:26:27.596Z,98417.91
2023-03-31T02:31:44.358Z,98414.41
2023-03-31T02:36:47.985Z,98419.50
2023-03-31T02:41:52.841Z,98417.09
2023-03-31T02:46:56.191Z,98422.03
2023-03-31T02:52:32.578Z,98421.78
2023-03-31T02:57:55.273Z,98418.34
2023-03-31T03:03:15.556Z,98424.63
2023-03-31T03:08:29.342Z,98416.38
2023-03-31T03:13:42.269Z,98423.94
2023-03-31T03:18:45.793Z,98433.31
2023-03-31T03:23:49.235Z,98432.38
2023-03-31T03:28:54.161Z,98415.41
2023-03-31T03:33:57.738Z,98425.78
2023-03-31T03:39:01.527Z,98421.41
2023-03-31T03:44:06.815Z,98410.59
2023-03-31T03:49:10.391Z,98420.03
2023-03-31T03:54:14.193Z,98412.56
2023-03-31T03:59:19.081Z,98403.38
2023-03-31T04:04:22.439Z,98397.16
2023-03-31T04:09:25.881Z,98401.56
2023-03-31T04:14:30.816Z,98388.59
2023-03-31T04:19:34.784Z,98376.31
2023-03-31T04:24:38.914Z,98375.00
2023-03-31T04:29:54.784Z,98364.31
2023-03-31T04:35:03.673Z,98360.59
2023-03-31T04:40:09.483Z,98360.63
2023-03-31T04:45:14.636Z,98342.91
2023-03-31T04:50:18.283Z,98345.38
2023-03-31T04:55:21.747Z,98343.38
2023-03-31T05:00:27.224Z,98356.03
2023-03-31T05:05:30.794Z,98335.78
2023-03-31T05:10:34.255Z,98321.94
2023-03-31T05:15:40.805Z,98312.28
2023-03-31T05:20:44.315Z,98299.97
2023-03-31T05:25:49.036Z,98296.94
2023-03-31T05:30:53.927Z,98302.91
2023-03-31T05:35:57.801Z,98298.50
2023-03-31T05:41:01.322Z,98303.75
2023-03-31T05:46:07.108Z,98312.94
2023-03-31T05:51:10.816Z,98322.59
2023-03-31T05:56:14.281Z,98323.94
2023-03-31T06:01:19.983Z,98330.22
2023-03-31T06:06:24.294Z,98326.03
2023-03-31T06:11:27.925Z,98338.09
2023-03-31T06:16:32.833Z,98320.22
2023-03-31T06:21:36.597Z,98311.69
2023-03-31T06:26:40.078Z,98311.22
2023-03-31T06:31:44.988Z,98297.84
2023-03-31T06:36:48.506Z,98291.13
2023-03-31T06:41:51.986Z,98289.91
2023-03-31T06:46:56.868Z,98282.63
2023-03-31T06:52:00.316Z,98283.78
2023-03-31T06:57:03.962Z,98282.06
2023-03-31T07:02:08.541Z,98281.38
2023-03-31T07:07:12.016Z,98278.88
2023-03-31T07:12:15.445Z,98277.00
2023-03-31T07:17:20.446Z,98281.31
2023-03-31T07:22:23.912Z,98263.50
2023-03-31T07:27:27.431Z,98263.75
2023-03-31T07:32:33.308Z,98257.91
2023-03-31T07:37:37.242Z,98248.03
2023-03-31T07:42:40.734Z,98242.97
2023-03-31T07:47:46.641Z,98243.00
2023-03-31T07:52:50.327Z,98248.69
2023-03-31T07:57:53.982Z,98237.16
2023-03-31T08:02:59.196Z,98237.72
2023-03-31T08:08:02.774Z,98239.16
2023-03-31T08:13:06.376Z,98229.81
2023-03-31T08:18:11.696Z,98220.00
2023-03-31T08:28:51.562Z,98201.56
2023-03-31T08:33:58.739Z,98206.09
2023-03-31T08:39:02.189Z,98191.75
2023-03-31T08:44:11.602Z,98185.81
2023-03-31T08:49:19.775Z,98164.56
2023-03-31T08:54:32.675Z,98168.88
2023-03-31T08:59:37.843Z,98176.00
2023-03-31T09:04:56.391Z,98177.88
2023-03-31T09:10:09.126Z,98153.31
2023-03-31T09:15:16.463Z,98160.53
2023-03-31T09:20:24.499Z,98154.44
2023-03-31T09:25:30.140Z,98146.41
2023-03-31T09:30:36.751Z,98123.13
2023-03-31T09:35:42.285Z,98136.91
2023-03-31T09:40:47.029Z,98115.84
2023-03-31T09:46:05.754Z,98122.41
2023-03-31T09:51:20.109Z,98109.44
2023-03-31T09:56:50.609Z,98112.22
2023-03-31T10:01:59.102Z,98095.72
2023-03-31T10:07:08.261Z,98087.47
2023-03-31T10:12:20.322Z,98072.81
2023-03-31T10:17:25.879Z,98065.31
2023-03-31T10:22:32.588Z,98052.44
2023-03-31T10:27:36.148Z,98061.28
2023-03-31T10:32:43.360Z,98055.63
2023-03-31T10:37:50.573Z,98056.06
2023-03-31T10:43:02.876Z,98045.22
2023-03-31T10:48:08.709Z,98050.09
2023-03-31T10:53:15.186Z,98038.47
2023-03-31T10:58:35.436Z,98033.34
2023-03-31T11:04:01.586Z,98026.03
2023-03-31T11:09:19.464Z,98022.59
2023-03-31T11:14:34.061Z,98013.78
2023-03-31T11:19:49.264Z,98004.09
2023-03-31T11:25:18.634Z,97999.78
2023-03-31T11:30:26.177Z,98003.66
2023-03-31T11:35:47.476Z,97996.63
2023-03-31T11:41:03.687Z,97986.44
2023-03-31T11:46:12.589Z,97973.47
2023-03-31T11:51:21.139Z,97971.72
2023-03-31T11:56:30.614Z,97963.94
2023-03-31T12:01:42.555Z,97956.22
2023-03-31T12:06:49.519Z,97956.88
2023-03-31T12:12:00.920Z,97946.31
2023-03-31T12:17:11.699Z,97930.59
2023-03-31T12:22:21.146Z,97927.91
2023-03-31T12:27:29.427Z,97924.94
2023-03-31T12:32:36.588Z,97923.13
2023-03-31T12:38:15.550Z,97913.59
2023-03-31T12:43:48.522Z,97913.06
2023-03-31T12:49:06.726Z,97907.16
2023-03-31T12:54:23.603Z,97901.44
2023-03-31T12:59:34.032Z,97898.81
2023-03-31T13:04:38.452Z,97881.81
2023-03-31T13:09:53.068Z,97890.63
2023-03-31T13:15:00.648Z,97892.66
2023-03-31T13:20:40.658Z,97885.06
2023-03-31T13:26:10.502Z,97878.47
2023-03-31T13:31:16.422Z,97874.31
2023-03-31T13:36:49.156Z,97873.69
2023-03-31T13:42:08.678Z,97873.06
2023-03-31T13:47:54.542Z,97859.91
2023-03-31T13:53:06.780Z,97866.66
2023-03-31T13:58:39.137Z,97861.47
2023-03-31T14:04:00.075Z,97860.78
2023-03-31T14:09:07.981Z,97852.03
2023-03-31T14:14:15.715Z,97850.44
2023-03-31T14:19:43.509Z,97849.28
2023-03-31T14:24:53.176Z,97837.38
2023-03-31T14:30:04.336Z,97846.16
2023-03-31T14:35:26.779Z,97843.63
2023-03-31T14:40:32.189Z,97842.34
2023-03-31T14:45:35.669Z,97844.78
2023-03-31T14:50:44.845Z,97838.75
2023-03-31T14:55:58.763Z,97843.44
2023-03-31T15:01:07.037Z,97842.41
2023-03-31T15:06:13.521Z,97838.41
2023-03-31T15:11:21.051Z,97828.03
2023-03-31T15:16:35.159Z,97823.72
2023-03-31T15:21:40.589Z,97839.94
2023-03-31T15:26:49.821Z,97844.19
2023-03-31T15:31:53.558Z,97846.03
2023-03-31T15:36:59.157Z,97836.53
2023-03-31T15:42:05.125Z,97839.22
2023-03-31T15:47:15.197Z,97840.31
2023-03-31T15:52:27.991Z,97832.84
2023-03-31T15:57:36.461Z,97828.63
2023-03-31T16:02:44.199Z,97839.94
2023-03-31T16:07:49.408Z,97831.34
2023-03-31T16:12:56.188Z,97826.13
2023-03-31T16:18:04.483Z,97828.78
2023-03-31T16:23:17.232Z,97828.78
2023-03-31T16:28:24.278Z,97832.31
2023-03-31T16:33:27.809Z,97837.63
2023-03-31T16:38:32.620Z,97835.06
2023-03-31T16:43:36.367Z,97841.19
2023-03-31T16:48:39.793Z,97832.59
2023-03-31T16:53:45.316Z,97829.97
2023-03-31T16:58:49.044Z,97831.81
2023-03-31T17:03:52.733Z,97827.50
2023-03-31T17:08:57.887Z,97834.41
2023-03-31T17:14:02.496Z,97838.84
2023-03-31T17:19:06.129Z,97833.75
2023-03-31T17:24:11.573Z,97831.16
2023-03-31T17:29:16.655Z,97825.28
2023-03-31T17:34:20.213Z,97817.59
2023-03-31T17:39:25.262Z,97811.66
2023-03-31T17:44:28.717Z,97815.91
2023-03-31T17:49:32.552Z,97811.56
2023-03-31T17:54:37.512Z,97808.09
2023-03-31T17:59:40.679Z,97803.81
2023-03-31T18:04:44.840Z,97809.84
2023-03-31T18:09:49.949Z,97802.97
2023-03-31T18:14:53.744Z,97808.06
2023-03-31T18:19:57.787Z,97805.47
2023-03-31T18:25:02.718Z,97808.84
2023-03-31T18:30:08.258Z,97797.69
2023-03-31T18:35:11.841Z,97802.06
2023-03-31T18:40:17.530Z,97796.06
2023-03-31T18:45:21.042Z,97795.28
2023-03-31T18:50:24.575Z,97789.25
2023-03-31T18:55:30.282Z,97783.19
2023-03-31T19:00:34.076Z,97782.44
2023-03-31T19:05:38.914Z,97773.03
2023-03-31T19:10:43.946Z,97749.13
2023-03-31T19:15:47.859Z,97769.75
2023-03-31T19:20:51.842Z,97759.47
2023-03-31T19:25:57.829Z,97766.28
2023-03-31T19:31:04.319Z,97760.28
2023-03-31T19:36:08.052Z,97762.84
2023-03-31T19:41:12.996Z,97755.97
2023-03-31T19:46:16.215Z,97750.88
2023-03-31T19:51:19.936Z,97742.38
2023-03-31T19:56:27.142Z,97736.38
2023-03-31T20:01:30.708Z,97739.84
2023-03-31T20:06:37.183Z,97737.25
2023-03-31T20:11:43.568Z,97720.13
2023-03-31T20:16:48.069Z,97712.41
2023-03-31T20:21:56.188Z,97718.38
2023-03-31T20:27:01.635Z,97726.06
2023-03-31T20:32:06.025Z,97711.47
2023-03-31T20:37:09.474Z,97723.47
2023-03-31T20:42:14.253Z,97714.88
2023-03-31T20:47:17.823Z,97720.03
2023-03-31T20:52:21.454Z,97714.91
2023-03-31T20:57:26.550Z,97723.47
2023-03-31T21:02:30.039Z,97710.66
2023-03-31T21:07:33.505Z,97723.50
2023-03-31T21:12:38.340Z,97726.06
2023-03-31T21:17:41.858Z,97720.06
2023-03-31T21:22:45.346Z,97720.13
2023-03-31T21:27:50.262Z,97721.00
2023-03-31T21:32:54.046Z,97720.91
2023-03-31T21:37:57.449Z,97717.53
2023-03-31T21:43:02.709Z,97710.72
2023-03-31T21:48:08.235Z,97712.41
2023-03-31T21:53:12.268Z,97707.31
2023-03-31T21:58:17.977Z,97704.72
2023-03-31T22:03:27.578Z,97691.06
2023-03-31T22:08:32.322Z,97714.16
2023-03-31T22:13:37.996Z,97713.31
2023-03-31T22:18:41.420Z,97713.31
2023-03-31T22:23:44.851Z,97709.84
2023-03-31T22:28:50.325Z,97703.88
2023-03-31T22:33:53.775Z,97700.47
2023-03-31T22:38:57.225Z,97702.09
2023-03-31T22:44:02.067Z,97699.56
2023-03-31T22:49:06.406Z,97699.63
2023-03-31T22:54:14.731Z,97684.22
2023-03-31T22:59:19.678Z,97684.25
2023-03-31T23:04:23.336Z,97687.59
2023-03-31T23:09:27.295Z,97684.19
2023-03-31T23:14:32.343Z,97679.88
2023-03-31T23:19:37.385Z,97673.91
2023-03-31T23:24:40.882Z,97669.63
2023-03-31T23:29:46.211Z,97665.38
2023-03-31T23:34:49.625Z,97679.06
2023-03-31T23:39:53.080Z,97679.06
2023-03-31T23:44:57.940Z,97679.06
2023-03-31T23:50:01.325Z,97664.47
2023-03-31T23:55:06.811Z,97668.78
